Time;durP1;ratioP1;P1;durP2;ratioP2;P2;SDS_P1;SDS_P2;PMS_P1;PMS_P2;Temp;Humidity;BMP_temperature;BMP_pressure;BME280_temperature;BME280_humidity;BME280_pressure;Samples;Min_cycle;Max_cycle;Signal;HPM_P1;HPM_P2
2023/01/03 00:01:48;;;;;;;29.70;22.10;;;21.60;85.50;;;;;;1790776;78;21083;-80
2023/01/03 00:04:20;;;;;;;34.08;22.62;;;21.60;85.70;;;;;;1829149;78;21084;-80
2023/01/03 00:06:53;;;;;;;34.38;22.87;;;21.70;85.60;;;;;;1829278;76;21476;-80
2023/01/03 00:09:25;;;;;;;30.17;21.37;;;21.60;85.80;;;;;;1829164;78;21086;-80
2023/01/03 00:14:44;;;;;;;29.90;22.85;;;21.60;86.00;;;;;;1828359;77;21488;-80
2023/01/03 00:17:16;;;;;;;31.70;23.77;;;21.60;85.80;;;;;;1831132;77;21636;-80
2023/01/03 00:19:47;;;;;;;32.05;22.95;;;21.60;85.70;;;;;;1829704;77;21102;-81
2023/01/03 00:22:19;;;;;;;31.15;24.18;;;21.60;85.40;;;;;;1835010;77;21157;-79
2023/01/03 00:24:51;;;;;;;33.13;22.80;;;21.70;85.10;;;;;;1818501;77;21152;-81
2023/01/03 00:27:22;;;;;;;32.98;23.87;;;21.60;85.00;;;;;;1828377;78;21084;-82
2023/01/03 00:29:53;;;;;;;30.65;22.32;;;21.60;85.10;;;;;;1829181;77;21148;-82
2023/01/03 00:32:23;;;;;;;31.23;23.70;;;21.70;85.20;;;;;;1828794;78;21086;-82
2023/01/03 00:34:54;;;;;;;32.95;22.30;;;21.70;84.90;;;;;;1829205;78;21615;-82
2023/01/03 00:37:26;;;;;;;29.42;20.68;;;21.70;84.90;;;;;;1827209;77;21085;-81
2023/01/03 00:39:57;;;;;;;30.40;20.75;;;21.70;84.50;;;;;;1829237;78;21608;-77
2023/01/03 00:42:28;;;;;;;29.67;20.48;;;21.70;85.10;;;;;;1830129;77;21094;-70
2023/01/03 00:45:00;;;;;;;31.40;20.88;;;21.80;84.40;;;;;;1827973;77;21120;-70
2023/01/03 00:50:22;;;;;;;25.92;20.17;;;21.80;84.30;;;;;;1841901;76;21150;-68
2023/01/03 00:52:53;;;;;;;29.95;20.50;;;21.80;84.30;;;;;;1846901;76;21151;-70
2023/01/03 00:55:24;;;;;;;28.38;20.40;;;21.80;84.20;;;;;;1843030;76;21891;-71
2023/01/03 00:57:55;;;;;;;29.77;22.00;;;21.80;84.40;;;;;;1859891;76;21161;-70
2023/01/03 01:00:26;;;;;;;35.35;26.02;;;21.80;84.30;;;;;;1844758;76;21134;-71
2023/01/03 01:02:57;;;;;;;30.68;20.92;;;21.80;84.20;;;;;;1838386;77;21071;-72
2023/01/03 01:05:30;;;;;;;28.35;20.57;;;21.80;84.30;;;;;;1840960;77;21178;-70
2023/01/03 01:08:01;;;;;;;25.80;19.95;;;21.90;84.10;;;;;;1833509;77;21158;-69
2023/01/03 01:10:32;;;;;;;27.48;19.60;;;21.90;83.80;;;;;;1842158;77;21557;-71
2023/01/03 01:13:02;;;;;;;30.80;21.05;;;21.90;84.00;;;;;;1844601;76;21666;-69
2023/01/03 01:15:35;;;;;;;121.20;28.50;;;21.90;83.80;;;;;;1848137;76;21091;-71
2023/01/03 01:18:06;;;;;;;124.67;29.65;;;21.90;83.90;;;;;;1847119;76;21704;-71
2023/01/03 01:20:39;;;;;;;33.18;20.77;;;21.90;83.60;;;;;;1846737;76;21244;-70
2023/01/03 01:23:10;;;;;;;27.52;21.45;;;22.00;83.90;;;;;;1847638;76;21685;-69
2023/01/03 01:25:41;;;;;;;30.50;20.82;;;22.00;83.80;;;;;;1847136;76;21142;-68
2023/01/03 01:28:12;;;;;;;29.95;21.27;;;22.10;83.50;;;;;;1848284;76;21103;-71
2023/01/03 01:30:43;;;;;;;31.10;21.40;;;22.10;83.40;;;;;;1846702;76;21129;-71
2023/01/03 01:33:14;;;;;;;32.30;20.30;;;22.10;83.30;;;;;;1845496;76;21091;-70
2023/01/03 01:35:45;;;;;;;28.17;19.75;;;22.10;83.20;;;;;;1848015;76;21140;-72
2023/01/03 01:38:16;;;;;;;26.15;19.87;;;22.20;83.00;;;;;;1843769;76;21091;-71
2023/01/03 01:40:50;;;;;;;26.33;19.57;;;22.20;82.80;;;;;;1842728;77;21570;-72
2023/01/03 01:46:20;;;;;;;25.37;19.42;;;22.30;82.90;;;;;;1849205;76;21071;-70
2023/01/03 01:48:58;;;;;;;25.85;19.23;;;22.30;82.70;;;;;;1844388;76;21435;-70
2023/01/03 01:51:32;;;;;;;29.90;19.52;;;22.40;82.20;;;;;;1838588;76;21148;-70
2023/01/03 01:54:05;;;;;;;24.30;19.48;;;22.40;81.90;;;;;;1856093;76;21618;-70
2023/01/03 01:56:38;;;;;;;28.32;20.50;;;22.40;81.70;;;;;;1859706;76;21076;-71
2023/01/03 01:59:11;;;;;;;26.17;19.25;;;22.40;81.50;;;;;;1853939;76;21185;-70
2023/01/03 02:04:37;;;;;;;24.00;17.87;;;22.50;81.60;;;;;;1835312;77;21190;-69
2023/01/03 02:07:09;;;;;;;23.90;18.00;;;22.50;81.30;;;;;;1862737;75;21579;-71
2023/01/03 02:09:40;;;;;;;26.15;17.82;;;22.50;80.90;;;;;;1826064;77;21657;-70
2023/01/03 02:15:36;;;;;;;23.02;16.95;;;22.50;80.70;;;;;;1822150;77;21143;-70
2023/01/03 02:18:31;;;;;;;23.40;15.38;;;22.60;80.50;;;;;;1820960;77;21602;-70
2023/01/03 02:21:26;;;;;;;21.52;15.38;;;22.60;80.50;;;;;;1780501;79;21943;-70
2023/01/03 02:24:22;;;;;;;21.65;15.38;;;22.60;80.60;;;;;;1849687;75;21188;-71
2023/01/03 02:27:10;;;;;;;21.37;15.45;;;22.70;80.80;;;;;;1857523;75;21137;-70
2023/01/03 02:30:01;;;;;;;18.00;14.25;;;22.70;80.10;;;;;;1820464;77;21154;-70
2023/01/03 02:32:46;;;;;;;19.25;15.08;;;22.70;79.40;;;;;;1861815;76;21194;-72
2023/01/03 02:35:23;;;;;;;19.82;14.30;;;22.70;79.20;;;;;;1857859;75;21698;-71
2023/01/03 02:38:00;;;;;;;;;;;22.80;79.60;;;;;;1838031;77;21607;-71
2023/01/03 02:40:37;;;;;;;21.10;14.15;;;22.80;79.50;;;;;;1824822;78;20139;-70
2023/01/03 02:43:10;;;;;;;21.57;14.07;;;22.80;79.10;;;;;;1824010;77;21127;-70
2023/01/03 02:45:53;;;;;;;17.80;13.32;;;22.80;79.30;;;;;;1859729;75;21650;-70
2023/01/03 02:48:49;;;;;;;17.73;13.38;;;22.90;79.00;;;;;;1858310;75;21141;-70
2023/01/03 02:51:29;;;;;;;20.95;13.13;;;22.90;78.80;;;;;;1865728;75;21579;-70
2023/01/03 02:54:02;;;;;;;17.40;13.95;;;23.00;78.80;;;;;;1819662;77;21122;-70
2023/01/03 02:56:35;;;;;;;20.40;13.48;;;23.00;78.80;;;;;;1821795;77;21135;-69
2023/01/03 02:59:10;;;;;;;17.77;13.48;;;23.00;78.40;;;;;;1856487;75;21567;-71
2023/01/03 03:01:43;;;;;;;20.72;13.50;;;23.10;78.50;;;;;;1819849;77;21059;-71
2023/01/03 03:04:15;;;;;;;18.17;12.93;;;23.20;78.30;;;;;;1822894;77;21101;-71
2023/01/03 03:06:51;;;;;;;16.87;13.22;;;23.30;78.20;;;;;;1906760;73;21197;-71
2023/01/03 03:09:23;;;;;;;18.98;13.45;;;23.30;77.80;;;;;;1907486;72;21116;-70
2023/01/03 03:14:47;;;;;;;15.93;12.95;;;23.40;77.10;;;;;;1910218;74;21531;-71
2023/01/03 03:17:38;;;;;;;19.77;12.82;;;23.40;77.20;;;;;;1833004;77;21651;-71
2023/01/03 03:25:59;;;;;;;15.68;11.38;;;23.60;76.30;;;;;;1864778;75;21540;-70
2023/01/03 03:28:35;;;;;;;16.00;11.53;;;23.70;75.80;;;;;;1868089;75;21080;-70
2023/01/03 03:31:15;;;;;;;14.63;11.83;;;23.70;75.70;;;;;;1863408;75;21182;-71
2023/01/03 03:34:07;;;;;;;16.82;11.50;;;23.70;75.70;;;;;;1881243;75;22125;-73
2023/01/03 03:37:01;;;;;;;16.35;11.63;;;23.80;75.50;;;;;;1870262;75;21158;-70
2023/01/03 03:45:37;;;;;;;;;;;24.00;75.20;;;;;;1927343;73;21121;-72
2023/01/03 03:48:13;;;;;;;14.83;12.43;;;24.00;74.80;;;;;;1928011;73;20150;-72
2023/01/03 03:51:05;;;;;;;16.50;11.73;;;24.10;74.60;;;;;;1936068;73;21072;-71
2023/01/03 03:53:39;;;;;;;16.05;11.78;;;24.20;75.00;;;;;;1922914;73;21496;-71
2023/01/03 03:56:12;;;;;;;18.27;12.33;;;24.40;74.20;;;;;;1914295;73;21164;-69
2023/01/03 03:58:45;;;;;;;19.42;11.80;;;24.50;73.80;;;;;;1925587;73;21164;-71
2023/01/03 04:01:19;;;;;;;13.78;11.22;;;24.60;73.30;;;;;;1920412;73;21586;-71
2023/01/03 04:03:52;;;;;;;16.23;11.83;;;24.60;73.30;;;;;;1930088;73;21544;-71
2023/01/03 04:06:28;;;;;;;15.58;11.88;;;24.60;73.20;;;;;;1924261;73;21056;-71
2023/01/03 04:09:18;;;;;;;15.00;11.83;;;24.60;73.10;;;;;;1924975;74;21535;-71
2023/01/03 04:11:49;;;;;;;15.05;12.28;;;24.70;72.80;;;;;;1872357;75;21195;-71
2023/01/03 04:14:20;;;;;;;16.05;12.13;;;24.70;72.80;;;;;;1876320;74;21151;-71
2023/01/03 04:16:51;;;;;;;16.77;12.00;;;24.70;73.30;;;;;;1875408;76;21142;-69
2023/01/03 04:19:25;;;;;;;14.87;11.90;;;24.70;72.70;;;;;;1878855;74;21116;-70
2023/01/03 04:21:56;;;;;;;14.98;11.55;;;24.80;72.90;;;;;;1878417;74;21159;-73
2023/01/03 04:24:27;;;;;;;17.30;12.10;;;24.90;72.80;;;;;;1880509;74;21134;-72
2023/01/03 04:26:58;;;;;;;17.20;12.45;;;25.00;72.70;;;;;;1881529;75;21084;-72
2023/01/03 04:29:47;;;;;;;18.27;12.37;;;25.10;72.10;;;;;;1894144;74;21821;-73
2023/01/03 04:32:19;;;;;;;16.23;12.40;;;25.20;72.00;;;;;;1877079;74;21512;-72
2023/01/03 04:34:50;;;;;;;14.15;12.05;;;25.20;71.70;;;;;;1869141;74;21124;-72
2023/01/03 04:37:22;;;;;;;12.23;10.55;;;25.30;71.60;;;;;;1882236;74;21630;-72
2023/01/03 04:39:53;;;;;;;13.30;10.50;;;25.40;71.10;;;;;;1877670;74;21072;-73
2023/01/03 04:45:13;;;;;;;13.28;11.03;;;25.60;70.60;;;;;;1885502;74;21213;-71
2023/01/03 04:47:44;;;;;;;12.58;8.85;;;25.70;70.40;;;;;;1875393;74;21085;-72
2023/01/03 04:50:15;;;;;;;13.38;8.43;;;25.90;70.00;;;;;;1879122;74;21187;-72
2023/01/03 04:52:46;;;;;;;10.43;8.53;;;26.00;68.60;;;;;;1883725;75;21140;-72
2023/01/03 04:55:17;;;;;;;12.45;8.75;;;26.10;67.90;;;;;;1877814;75;21077;-71
2023/01/03 04:57:49;;;;;;;13.25;8.45;;;26.30;68.30;;;;;;1877169;74;21161;-72
2023/01/03 05:00:20;;;;;;;12.63;8.10;;;26.30;68.10;;;;;;1881846;76;21124;-73
2023/01/03 05:02:51;;;;;;;13.72;7.60;;;26.30;67.50;;;;;;1888266;74;21126;-72
2023/01/03 05:05:22;;;;;;;11.40;8.63;;;26.40;67.30;;;;;;1873941;76;21085;-72
2023/01/03 05:07:53;;;;;;;11.63;7.72;;;26.40;67.40;;;;;;1883822;74;21073;-73
2023/01/03 05:10:24;;;;;;;13.88;8.53;;;26.40;67.20;;;;;;1871493;74;21159;-73
2023/01/03 05:13:02;;;;;;;13.83;8.25;;;26.40;66.80;;;;;;1871125;75;21569;-72
2023/01/03 05:15:38;;;;;;;12.35;8.53;;;26.50;66.70;;;;;;1881624;75;21810;-73
2023/01/03 05:18:15;;;;;;;12.68;9.08;;;26.50;67.10;;;;;;1885649;74;21589;-73
2023/01/03 05:26:26;;;;;;;13.43;9.15;;;26.50;67.20;;;;;;1883442;74;21158;-73
2023/01/03 05:29:03;;;;;;;12.55;9.60;;;26.50;67.10;;;;;;1890670;74;21214;-73
2023/01/03 05:31:35;;;;;;;11.28;9.38;;;26.60;66.80;;;;;;1849444;76;21120;-72
2023/01/03 05:34:07;;;;;;;10.28;8.85;;;26.60;67.10;;;;;;1873368;74;21072;-73
2023/01/03 05:36:38;;;;;;;13.65;9.08;;;26.60;67.10;;;;;;1886051;74;21650;-73
2023/01/03 05:39:09;;;;;;;11.38;8.58;;;26.60;66.80;;;;;;1893490;74;21126;-72
2023/01/03 05:41:59;;;;;;;10.88;8.38;;;26.70;66.40;;;;;;1892130;74;21929;-72
2023/01/03 05:44:33;;;;;;;10.98;8.25;;;26.70;66.50;;;;;;1848260;76;21784;-73
2023/01/03 05:47:06;;;;;;;15.80;8.65;;;26.70;66.60;;;;;;1900916;74;21080;-73
2023/01/03 05:49:37;;;;;;;12.40;10.03;;;26.70;66.70;;;;;;1895461;74;21259;-73
2023/01/03 05:52:10;;;;;;;15.93;10.32;;;26.70;67.00;;;;;;1902601;74;21100;-73
2023/01/03 05:54:41;;;;;;;11.53;9.23;;;26.70;67.30;;;;;;1849835;76;21080;-73
2023/01/03 05:57:12;;;;;;;13.53;10.32;;;26.60;67.00;;;;;;1879554;74;21140;-72
2023/01/03 05:59:43;;;;;;;11.38;9.33;;;26.60;66.90;;;;;;1880289;74;21216;-73
2023/01/03 06:02:18;;;;;;;11.70;8.43;;;26.60;67.10;;;;;;1882987;75;21228;-73
2023/01/03 06:04:53;;;;;;;11.97;8.50;;;26.60;67.40;;;;;;1881076;75;21189;-72
2023/01/03 06:07:24;;;;;;;10.90;8.48;;;26.50;67.50;;;;;;1835402;77;21199;-73
2023/01/03 06:09:55;;;;;;;10.58;7.70;;;26.60;67.30;;;;;;1885525;74;21179;-72
2023/01/03 06:12:27;;;;;;;9.10;7.35;;;26.60;67.20;;;;;;1877640;74;21222;-72
2023/01/03 06:14:58;;;;;;;8.50;7.22;;;26.70;66.70;;;;;;1886259;74;21179;-72
2023/01/03 06:20:18;;;;;;;8.98;6.00;;;26.90;66.30;;;;;;1883000;74;21235;-71
2023/01/03 06:22:49;;;;;;;8.03;5.90;;;27.00;66.20;;;;;;1893656;74;21163;-72
2023/01/03 06:25:20;;;;;;;11.85;5.33;;;27.10;65.70;;;;;;1894482;74;21073;-71
2023/01/03 06:27:51;;;;;;;9.05;5.75;;;27.00;65.50;;;;;;1893518;74;21190;-72
2023/01/03 06:30:23;;;;;;;9.55;6.58;;;27.10;65.50;;;;;;1895815;74;21072;-72
2023/01/03 06:32:54;;;;;;;7.35;5.85;;;27.20;65.20;;;;;;1887455;74;21152;-73
2023/01/03 06:35:26;;;;;;;8.55;5.42;;;27.30;64.80;;;;;;1884160;74;21176;-72
2023/01/03 06:37:59;;;;;;;9.48;5.87;;;27.30;64.50;;;;;;1890115;74;21149;-71
2023/01/03 06:40:29;;;;;;;12.25;5.42;;;27.30;64.30;;;;;;1888818;74;21535;-71
2023/01/03 06:43:03;;;;;;;7.03;4.45;;;27.40;64.70;;;;;;1878137;74;21730;-71
2023/01/03 06:54:01;;;;;;;9.80;4.90;;;27.50;63.80;;;;;;1890533;74;21111;-70
2023/01/03 06:56:31;;;;;;;8.30;4.53;;;27.60;63.80;;;;;;1890860;74;21107;-71
2023/01/03 06:59:02;;;;;;;5.37;3.72;;;27.50;64.00;;;;;;1887432;74;21211;-70
2023/01/03 07:01:33;;;;;;;7.05;4.47;;;27.50;64.80;;;;;;1889478;74;21276;-70
2023/01/03 07:04:04;;;;;;;7.75;4.53;;;27.50;64.80;;;;;;1886454;74;21266;-68
2023/01/03 07:06:35;;;;;;;7.92;4.50;;;27.50;64.20;;;;;;1878308;74;21684;-70
2023/01/03 07:09:06;;;;;;;10.00;4.67;;;27.50;64.10;;;;;;1879779;75;21720;-70
2023/01/03 07:11:38;;;;;;;6.78;4.40;;;27.50;64.00;;;;;;1884364;74;21230;-70
2023/01/03 07:14:11;;;;;;;9.68;4.35;;;27.50;63.60;;;;;;1853030;75;21148;-69
2023/01/03 07:16:45;;;;;;;7.62;4.92;;;27.60;63.80;;;;;;1885198;74;21176;-68
2023/01/03 07:19:20;;;;;;;7.08;4.87;;;27.60;63.50;;;;;;1890704;74;21671;-70
2023/01/03 07:21:56;;;;;;;8.45;4.80;;;27.60;63.40;;;;;;1886167;74;21593;-70
2023/01/03 07:24:24;;;;;;;7.42;4.60;;;27.60;64.10;;;;;;1881169;74;21141;-71
2023/01/03 07:26:55;;;;;;;7.58;4.53;;;27.60;63.10;;;;;;1887203;75;21687;-70
2023/01/03 07:29:26;;;;;;;5.72;4.10;;;27.70;63.60;;;;;;1885971;74;21198;-70
2023/01/03 07:31:58;;;;;;;6.22;4.78;;;27.80;63.20;;;;;;1893688;74;21175;-70
2023/01/03 07:34:29;;;;;;;9.10;4.80;;;27.80;63.20;;;;;;1836363;76;21175;-71
2023/01/03 07:37:00;;;;;;;6.67;4.40;;;27.80;63.00;;;;;;1880017;74;21146;-70
2023/01/03 07:39:31;;;;;;;7.15;5.33;;;27.80;63.50;;;;;;1887362;74;21146;-70
2023/01/03 07:44:51;;;;;;;7.20;4.25;;;27.70;63.00;;;;;;1833778;76;22271;-70
2023/01/03 07:47:22;;;;;;;6.30;4.28;;;27.60;63.60;;;;;;1832742;77;21228;-69
2023/01/03 07:49:53;;;;;;;6.80;5.55;;;27.60;63.90;;;;;;1833671;77;21157;-70
2023/01/03 07:52:24;;;;;;;7.67;4.80;;;27.60;64.10;;;;;;1888090;74;21873;-70
2023/01/03 07:54:55;;;;;;;7.47;3.83;;;27.60;63.80;;;;;;1881508;74;21159;-70
2023/01/03 07:57:25;;;;;;;5.85;3.27;;;27.60;63.90;;;;;;1887878;74;21214;-70
2023/01/03 07:59:57;;;;;;;6.90;3.58;;;27.60;64.00;;;;;;1885021;74;21660;-70
2023/01/03 08:02:28;;;;;;;5.65;3.52;;;27.60;63.70;;;;;;1886453;74;21727;-70
2023/01/03 08:05:00;;;;;;;8.03;3.47;;;27.60;63.80;;;;;;1882846;74;21723;-69
2023/01/03 08:07:35;;;;;;;6.22;3.58;;;27.50;64.10;;;;;;1883237;74;21665;-69
2023/01/03 08:15:50;;;;;;;4.72;3.52;;;27.50;64.00;;;;;;1876960;75;21261;-69
2023/01/03 08:18:26;;;;;;;8.43;3.30;;;27.50;64.10;;;;;;1881156;74;21690;-69
2023/01/03 08:21:02;;;;;;;6.08;3.33;;;27.40;64.00;;;;;;1880025;74;21990;-70
2023/01/03 08:23:31;;;;;;;7.90;3.72;;;27.40;63.90;;;;;;1882666;75;21240;-69
2023/01/03 08:26:06;;;;;;;4.92;3.75;;;27.40;64.30;;;;;;1883731;74;21128;-68
2023/01/03 08:28:46;;;;;;;7.50;4.20;;;27.40;63.90;;;;;;1883981;75;21207;-70
2023/01/03 08:31:21;;;;;;;5.67;3.98;;;27.30;64.40;;;;;;1839231;76;21222;-70
2023/01/03 08:34:07;;;;;;;4.67;3.67;;;27.30;64.80;;;;;;1882268;74;21093;-70
2023/01/03 08:36:44;;;;;;;5.10;3.20;;;27.30;64.20;;;;;;1873126;75;21868;-70
2023/01/03 08:39:18;;;;;;;5.55;3.72;;;27.30;64.30;;;;;;1788778;78;21127;-70
2023/01/03 08:41:51;;;;;;;5.08;3.47;;;27.20;64.40;;;;;;1817065;77;21259;-68
2023/01/03 08:44:23;;;;;;;5.58;3.58;;;27.20;64.70;;;;;;1819430;77;21203;-71
2023/01/03 08:46:59;;;;;;;4.72;3.12;;;27.20;64.80;;;;;;1810160;78;21241;-70
2023/01/03 08:49:31;;;;;;;4.65;3.02;;;27.20;64.20;;;;;;1792477;78;21131;-69
2023/01/03 08:52:03;;;;;;;4.08;3.00;;;27.20;64.30;;;;;;1821769;77;21114;-70
2023/01/03 08:54:38;;;;;;;3.98;2.77;;;27.10;64.00;;;;;;1799489;78;21687;-68
2023/01/03 08:57:08;;;;;;;4.67;3.52;;;27.10;64.40;;;;;;1798841;78;21592;-69
2023/01/03 08:59:40;;;;;;;7.30;3.87;;;27.10;64.40;;;;;;1824737;77;21157;-70
2023/01/03 09:02:13;;;;;;;6.70;3.77;;;27.10;64.40;;;;;;1802368;79;21753;-70
2023/01/03 09:04:44;;;;;;;5.55;3.67;;;27.10;64.60;;;;;;1786295;78;22559;-70
2023/01/03 09:07:16;;;;;;;6.12;3.85;;;27.10;64.80;;;;;;1781969;78;21099;-70
2023/01/03 09:09:47;;;;;;;5.00;3.30;;;27.00;65.00;;;;;;1835149;77;21957;-70
2023/01/03 09:12:18;;;;;;;5.72;3.62;;;27.00;65.10;;;;;;1799277;78;21170;-70
2023/01/03 09:14:50;;;;;;;6.20;3.72;;;27.00;65.20;;;;;;1800351;78;21315;-69
2023/01/03 09:17:25;;;;;;;6.25;3.90;;;27.00;65.20;;;;;;1799509;78;21272;-69
2023/01/03 09:22:48;;;;;;;4.92;3.33;;;26.90;64.80;;;;;;1872012;75;21640;-69
2023/01/03 09:25:23;;;;;;;5.97;4.45;;;26.90;65.40;;;;;;1910380;73;21207;-68
2023/01/03 09:27:51;;;;;;;8.03;5.05;;;26.90;65.20;;;;;;1879420;75;21716;-69
2023/01/03 09:30:21;;;;;;;6.25;4.40;;;26.90;65.40;;;;;;1861442;75;21152;-70
2023/01/03 09:32:52;;;;;;;6.47;4.35;;;26.90;65.70;;;;;;1868422;75;21190;-70
2023/01/03 09:35:25;;;;;;;6.05;4.40;;;26.80;65.90;;;;;;1859080;75;21684;-70
2023/01/03 09:38:01;;;;;;;7.25;4.17;;;26.80;66.10;;;;;;1867127;75;21201;-70
2023/01/03 09:40:41;;;;;;;6.03;4.12;;;26.80;65.90;;;;;;1874224;74;21834;-71
2023/01/03 09:43:18;;;;;;;7.12;4.47;;;26.70;65.80;;;;;;1867413;75;21655;-69
2023/01/03 09:45:54;;;;;;;7.33;4.25;;;26.70;66.00;;;;;;1902919;74;21147;-69
2023/01/03 09:48:33;;;;;;;9.63;6.75;;;26.70;66.10;;;;;;1907876;73;21138;-70
2023/01/03 10:03:42;;;;;;;13.13;7.22;;;26.70;66.00;;;;;;1864219;75;21326;-72
2023/01/03 10:05:34;;;;;;;9.25;6.03;;;26.50;66.40;;;;;;1839614;76;21641;-69
2023/01/03 10:08:19;;;;;;;8.58;5.65;;;26.50;66.50;;;;;;1825554;77;21153;-70
2023/01/03 10:10:56;;;;;;;12.93;7.40;;;26.50;66.50;;;;;;1832435;77;21081;-72
2023/01/03 10:13:37;;;;;;;11.73;7.53;;;26.50;66.80;;;;;;1842748;77;21687;-69
2023/01/03 10:16:28;;;;;;;10.32;7.10;;;26.40;66.70;;;;;;1799206;77;21264;-69
2023/01/03 10:19:10;;;;;;;18.17;7.53;;;26.40;66.80;;;;;;1837759;77;21178;-69
2023/01/03 10:22:01;;;;;;;12.73;7.85;;;26.40;66.80;;;;;;1877797;75;21160;-69
2023/01/03 10:24:35;;;;;;;11.70;6.83;;;26.40;67.10;;;;;;1827004;77;21180;-70
2023/01/03 10:27:19;;;;;;;11.22;6.15;;;26.30;67.10;;;;;;1877755;75;21137;-71
2023/01/03 10:29:53;;;;;;;11.68;6.28;;;26.30;67.30;;;;;;1806935;78;21156;-71
2023/01/03 10:32:48;;;;;;;9.68;7.05;;;26.30;67.30;;;;;;1826154;77;21200;-70
2023/01/03 10:35:31;;;;;;;17.27;8.63;;;26.30;67.50;;;;;;1790219;77;22122;-70
2023/01/03 10:38:07;;;;;;;14.55;8.10;;;26.30;67.60;;;;;;1826137;77;21201;-69
2023/01/03 10:40:40;;;;;;;14.78;8.93;;;26.30;67.90;;;;;;1829287;77;21173;-70
2023/01/03 10:43:19;;;;;;;16.60;9.60;;;26.20;67.90;;;;;;1874019;75;21149;-68
2023/01/03 10:45:58;;;;;;;16.82;10.55;;;26.20;68.10;;;;;;1881116;75;21138;-70
2023/01/03 10:48:41;;;;;;;20.30;9.95;;;26.20;68.30;;;;;;1822401;78;21125;-70
2023/01/03 10:51:41;;;;;;;20.43;10.45;;;26.10;68.30;;;;;;1879785;75;21149;-71
2023/01/03 10:54:20;;;;;;;13.83;9.68;;;26.10;69.30;;;;;;1872175;75;21075;-69
2023/01/03 10:56:51;;;;;;;14.15;9.38;;;26.10;68.60;;;;;;1875179;75;21106;-69
2023/01/03 10:59:27;;;;;;;17.10;9.88;;;26.10;68.70;;;;;;1877707;75;21166;-69
2023/01/03 11:02:21;;;;;;;14.23;9.00;;;26.00;68.90;;;;;;1875166;75;21169;-69
2023/01/03 11:04:55;;;;;;;12.07;8.10;;;26.00;68.90;;;;;;1799842;78;21165;-69
2023/01/03 11:07:26;;;;;;;13.22;8.28;;;26.00;69.00;;;;;;1803861;78;21143;-70
2023/01/03 11:09:58;;;;;;;13.55;8.23;;;26.00;69.20;;;;;;1805602;78;21151;-70
2023/01/03 11:12:37;;;;;;;15.23;9.10;;;26.00;69.30;;;;;;1764635;79;21190;-69
2023/01/03 11:15:17;;;;;;;15.28;9.53;;;25.90;69.20;;;;;;1790809;78;21213;-69
2023/01/03 11:18:06;;;;;;;12.53;8.25;;;25.90;69.40;;;;;;1806304;78;21153;-69
2023/01/03 11:20:41;;;;;;;13.32;7.85;;;25.90;69.40;;;;;;1796262;78;21117;-70
2023/01/03 11:23:20;;;;;;;11.65;8.00;;;25.80;70.40;;;;;;1826456;77;21236;-71
2023/01/03 11:26:03;;;;;;;15.70;11.00;;;25.80;69.60;;;;;;1799403;77;21258;-70
2023/01/03 11:28:41;;;;;;;12.10;7.40;;;25.80;69.60;;;;;;1825587;77;21134;-69
2023/01/03 11:31:22;;;;;;;17.73;8.95;;;25.80;69.70;;;;;;1839110;76;21136;-70
2023/01/03 11:34:01;;;;;;;16.17;7.87;;;25.80;69.70;;;;;;1841187;76;21253;-69
2023/01/03 11:36:55;;;;;;;10.80;7.45;;;25.70;69.60;;;;;;1806565;78;21184;-68
2023/01/03 11:39:29;;;;;;;15.08;7.95;;;25.70;69.80;;;;;;1765750;79;21192;-69
2023/01/03 11:42:18;;;;;;;9.73;7.30;;;25.70;69.80;;;;;;1824606;77;21067;-68
2023/01/03 11:45:04;;;;;;;13.93;8.30;;;25.70;69.90;;;;;;1804792;78;21794;-70
2023/01/03 11:47:41;;;;;;;10.13;7.33;;;25.70;69.90;;;;;;1835208;76;21185;-70
2023/01/03 11:50:31;;;;;;;10.48;7.28;;;25.60;69.80;;;;;;1787813;77;21154;-69
2023/01/03 11:53:22;;;;;;;14.18;7.37;;;25.60;69.90;;;;;;1765281;79;21197;-85
2023/01/03 11:56:03;;;;;;;13.00;6.97;;;25.60;70.00;;;;;;1798778;78;21155;-85
2023/01/03 11:58:51;;;;;;;9.90;6.65;;;25.70;70.10;;;;;;1786996;78;21168;-86
2023/01/03 12:01:34;;;;;;;10.03;6.30;;;25.60;70.00;;;;;;1770814;79;21192;-85
2023/01/03 12:04:25;;;;;;;8.10;6.10;;;25.60;70.00;;;;;;1807891;77;21172;-83
2023/01/03 12:07:10;;;;;;;9.48;6.00;;;25.60;70.10;;;;;;1833234;76;21089;-81
2023/01/03 12:10:01;;;;;;;11.88;6.53;;;25.60;70.00;;;;;;1813715;77;21079;-81
2023/01/03 12:12:41;;;;;;;9.48;5.75;;;25.60;70.20;;;;;;1866600;75;21234;-84
2023/01/03 12:15:24;;;;;;;7.50;5.90;;;25.60;70.20;;;;;;1862166;75;21227;-84
2023/01/03 12:18:07;;;;;;;11.05;6.40;;;25.50;70.20;;;;;;1864863;75;21180;-83
2023/01/03 12:20:41;;;;;;;10.45;6.08;;;25.60;70.40;;;;;;1866384;75;21194;-84
2023/01/03 12:23:43;;;;;;;10.58;6.47;;;25.60;70.40;;;;;;1869293;75;21141;-84
2023/01/03 12:26:28;;;;;;;12.15;6.53;;;25.50;70.40;;;;;;1803657;77;21150;-85
2023/01/03 12:29:26;;;;;;;12.10;6.72;;;25.50;70.40;;;;;;1857193;75;21117;-83
2023/01/03 12:32:10;;;;;;;10.93;7.20;;;25.50;70.30;;;;;;1800888;78;21197;-84
2023/01/03 12:35:04;;;;;;;16.23;7.40;;;25.60;70.50;;;;;;1860521;75;21124;-83
2023/01/03 12:37:59;;;;;;;10.85;7.03;;;25.50;70.30;;;;;;1861643;76;21175;-83
2023/01/03 12:41:07;;;;;;;13.00;7.50;;;25.50;70.40;;;;;;1779357;78;21074;-84
2023/01/03 12:43:41;;;;;;;11.83;6.67;;;25.50;70.50;;;;;;1867635;75;21070;-85
2023/01/03 12:46:18;;;;;;;10.72;7.58;;;25.50;70.30;;;;;;1848516;75;21552;-84
2023/01/03 12:49:16;;;;;;;11.95;7.65;;;25.60;70.40;;;;;;1860390;75;21168;-83
2023/01/03 12:51:47;;;;;;;13.18;7.47;;;25.50;70.40;;;;;;1800266;78;21652;-85
2023/01/03 12:54:32;;;;;;;10.75;7.22;;;25.50;70.40;;;;;;1883470;75;21155;-83
2023/01/03 12:57:11;;;;;;;15.78;8.88;;;25.50;70.60;;;;;;1845393;76;21136;-84
2023/01/03 13:00:16;;;;;;;12.20;8.00;;;25.50;70.70;;;;;;1867845;75;21160;-85
2023/01/03 13:02:54;;;;;;;10.95;8.15;;;25.50;70.60;;;;;;1885615;75;21088;-86
2023/01/03 13:05:28;;;;;;;13.40;8.08;;;25.40;70.80;;;;;;1889902;75;21149;-85
2023/01/03 13:08:04;;;;;;;15.00;8.40;;;25.50;71.00;;;;;;1841721;76;21126;-84
2023/01/03 13:10:38;;;;;;;13.77;8.63;;;25.40;71.00;;;;;;1838967;76;21155;-87
2023/01/03 13:13:12;;;;;;;11.28;7.17;;;25.40;71.20;;;;;;1815193;77;21760;-86
2023/01/03 13:15:43;;;;;;;12.18;8.40;;;25.40;71.40;;;;;;1823383;77;21147;-85
2023/01/03 13:18:23;;;;;;;12.65;7.80;;;25.40;71.30;;;;;;1831584;78;21556;-85
2023/01/03 13:20:57;;;;;;;11.20;8.10;;;25.40;70.60;;;;;;1860978;75;21079;-86
2023/01/03 13:23:49;;;;;;;13.60;8.65;;;25.40;71.40;;;;;;1901400;75;21582;-85
2023/01/03 13:26:25;;;;;;;15.70;9.03;;;25.30;71.40;;;;;;1886324;75;21858;-85
2023/01/03 13:29:32;;;;;;;12.37;9.13;;;25.30;71.50;;;;;;1896090;74;21225;-84
2023/01/03 13:32:05;;;;;;;12.05;8.68;;;25.30;71.50;;;;;;1827007;77;21565;-84
2023/01/03 13:34:36;;;;;;;15.53;8.95;;;25.30;71.60;;;;;;1901139;74;21931;-84
2023/01/03 13:37:09;;;;;;;14.90;9.00;;;25.30;71.60;;;;;;1905576;75;21135;-86
2023/01/03 13:39:52;;;;;;;15.55;9.13;;;25.30;71.70;;;;;;1862572;75;21169;-85
2023/01/03 13:42:25;;;;;;;13.40;9.05;;;25.30;71.80;;;;;;1888042;74;21131;-83
2023/01/03 13:45:19;;;;;;;13.45;10.10;;;25.30;71.90;;;;;;1891329;74;21660;-84
2023/01/03 13:47:56;;;;;;;18.35;10.60;;;25.20;71.90;;;;;;1823829;77;21561;-84
2023/01/03 13:50:34;;;;;;;15.45;9.90;;;25.20;72.00;;;;;;1832420;77;21108;-84
2023/01/03 13:53:14;;;;;;;20.35;12.82;;;25.20;72.10;;;;;;1858228;77;21262;-86
2023/01/03 13:55:59;;;;;;;18.90;10.75;;;25.10;72.30;;;;;;1841449;77;21069;-84
2023/01/03 13:58:32;;;;;;;16.02;10.08;;;25.10;72.30;;;;;;1822603;77;21114;-85
2023/01/03 14:01:06;;;;;;;20.00;10.40;;;25.10;72.40;;;;;;1861516;76;21155;-86
2023/01/03 14:03:48;;;;;;;17.40;10.20;;;25.10;72.50;;;;;;1851080;76;21180;-84
2023/01/03 14:06:34;;;;;;;15.80;9.30;;;25.10;72.60;;;;;;1787829;80;21129;-85
2023/01/03 14:09:09;;;;;;;13.62;8.48;;;25.10;72.70;;;;;;1814905;77;21145;-85
2023/01/03 14:11:59;;;;;;;13.38;7.62;;;25.10;72.70;;;;;;1816234;79;21149;-85
2023/01/03 14:14:32;;;;;;;14.00;8.50;;;25.00;72.50;;;;;;1800316;78;21083;-85
2023/01/03 14:17:04;;;;;;;12.43;8.35;;;25.00;72.70;;;;;;1803896;78;21102;-86
2023/01/03 14:19:40;;;;;;;11.88;7.58;;;25.00;72.60;;;;;;1800012;78;21654;-86
2023/01/03 14:22:14;;;;;;;12.55;8.20;;;25.00;72.60;;;;;;1813328;78;21086;-85
2023/01/03 14:24:56;;;;;;;11.20;7.83;;;25.00;72.60;;;;;;1820360;78;21918;-84
2023/01/03 14:27:42;;;;;;;14.78;7.67;;;25.00;72.60;;;;;;1806612;78;21156;-85
2023/01/03 14:30:22;;;;;;;12.58;8.73;;;25.00;72.80;;;;;;1811329;77;21693;-85
2023/01/03 14:32:54;;;;;;;14.98;8.93;;;24.90;72.80;;;;;;1810941;78;21101;-86
2023/01/03 14:35:34;;;;;;;15.93;8.35;;;24.90;73.90;;;;;;1812777;78;21167;-85